Time;durP1;ratioP1;P1;durP2;ratioP2;P2;SDS_P1;SDS_P2;PMS_P1;PMS_P2;Temp;Humidity;BMP_temperature;BMP_pressure;BME280_temperature;BME280_humidity;BME280_pressure;Samples;Min_cycle;Max_cycle;Signal;HPM_P1;HPM_P2
2024/02/15 00:02:22;;;;;;;4.80;1.47;;;14.40;99.90;;;;;;5050237;28;20923;-76
2024/02/15 00:04:48;;;;;;;2.80;1.30;;;14.40;99.90;;;;;;5050592;28;20583;-76
2024/02/15 00:07:14;;;;;;;5.33;1.53;;;14.50;99.90;;;;;;5031806;28;20184;-77
2024/02/15 00:09:40;;;;;;;2.80;1.40;;;14.50;99.90;;;;;;5065529;28;20724;-77
2024/02/15 00:12:06;;;;;;;2.50;1.60;;;14.50;99.90;;;;;;5023507;28;20268;-77
2024/02/15 00:14:32;;;;;;;3.50;1.87;;;14.50;99.90;;;;;;5015603;28;20222;-77
2024/02/15 00:16:57;;;;;;;3.30;1.40;;;14.50;99.90;;;;;;5048038;28;21208;-76
2024/02/15 00:19:23;;;;;;;3.77;1.50;;;14.50;99.90;;;;;;5049428;28;20239;-76
2024/02/15 00:21:49;;;;;;;3.40;1.50;;;14.50;99.90;;;;;;5053551;28;21383;-76
2024/02/15 00:24:15;;;;;;;2.60;1.70;;;14.50;99.90;;;;;;5051598;28;20682;-76
2024/02/15 00:26:44;;;;;;;1.80;1.37;;;14.50;99.90;;;;;;5048384;28;20741;-77
2024/02/15 00:29:10;;;;;;;3.70;1.50;;;14.50;99.90;;;;;;5031175;28;20636;-77
2024/02/15 00:31:35;;;;;;;2.27;1.50;;;14.50;99.90;;;;;;5033291;28;20613;-77
2024/02/15 00:34:04;;;;;;;3.40;1.20;;;14.50;99.90;;;;;;5019472;28;20716;-77
2024/02/15 00:36:30;;;;;;;3.63;1.30;;;14.50;99.90;;;;;;5052160;28;20184;-77
2024/02/15 00:38:56;;;;;;;4.10;2.20;;;14.50;99.90;;;;;;5053497;28;21183;-77
2024/02/15 00:41:21;;;;;;;2.83;1.63;;;14.50;99.90;;;;;;5052735;28;20287;-77
2024/02/15 00:43:48;;;;;;;6.47;1.97;;;14.60;99.90;;;;;;5052908;28;20542;-78
2024/02/15 00:46:14;;;;;;;2.43;1.60;;;14.60;99.90;;;;;;5052201;28;20556;-76
2024/02/15 00:48:40;;;;;;;2.97;1.20;;;14.60;99.90;;;;;;5053726;28;20611;-76
2024/02/15 00:51:06;;;;;;;5.50;1.27;;;14.60;99.90;;;;;;5052532;28;20587;-76
2024/02/15 00:53:32;;;;;;;5.00;1.93;;;14.60;99.90;;;;;;5053848;28;20583;-77
2024/02/15 00:55:57;;;;;;;2.20;1.23;;;14.60;99.90;;;;;;5051765;28;20235;-77
2024/02/15 00:58:24;;;;;;;3.47;1.60;;;14.60;99.90;;;;;;5082533;22;20347;-75
2024/02/15 01:00:50;;;;;;;4.27;1.73;;;14.60;99.90;;;;;;5064806;28;20175;-75
2024/02/15 01:03:16;;;;;;;4.23;1.53;;;14.50;99.90;;;;;;5095668;28;20566;-75
2024/02/15 01:05:42;;;;;;;6.03;2.17;;;14.50;99.90;;;;;;5076553;28;20168;-75
2024/02/15 01:08:08;;;;;;;4.13;1.63;;;14.50;99.90;;;;;;5076502;28;20613;-75
2024/02/15 01:10:35;;;;;;;6.10;2.00;;;14.50;99.90;;;;;;5052659;28;20174;-75
2024/02/15 01:13:00;;;;;;;3.40;1.87;;;14.50;99.90;;;;;;5066243;28;20590;-75
2024/02/15 01:15:26;;;;;;;3.03;2.33;;;14.50;99.90;;;;;;5072720;28;20571;-75
2024/02/15 01:17:52;;;;;;;3.17;1.53;;;14.50;99.90;;;;;;5055248;28;20666;-75
2024/02/15 01:20:18;;;;;;;5.17;1.60;;;14.50;99.90;;;;;;5073333;28;20618;-75
2024/02/15 01:22:44;;;;;;;5.60;3.07;;;14.50;99.90;;;;;;5052491;28;20172;-75
2024/02/15 01:25:10;;;;;;;3.77;1.40;;;14.50;99.90;;;;;;5059759;28;20199;-75
2024/02/15 01:27:37;;;;;;;4.23;1.40;;;14.50;99.90;;;;;;5079557;28;20981;-74
2024/02/15 01:30:04;;;;;;;1.90;1.13;;;14.50;99.90;;;;;;5063017;28;20582;-75
2024/02/15 01:32:30;;;;;;;6.20;1.47;;;14.50;99.90;;;;;;5095963;28;21192;-74
2024/02/15 01:34:56;;;;;;;4.10;1.43;;;14.50;99.90;;;;;;5087280;28;21150;-75
2024/02/15 01:37:22;;;;;;;6.47;1.57;;;14.50;99.90;;;;;;5076985;28;20636;-75
2024/02/15 01:39:49;;;;;;;3.00;1.10;;;14.50;99.90;;;;;;5095553;28;20616;-75
2024/02/15 01:42:15;;;;;;;3.13;1.20;;;14.50;99.90;;;;;;5077093;28;20578;-75
2024/02/15 01:44:43;;;;;;;2.27;1.37;;;14.50;99.90;;;;;;5080695;28;20681;-75
2024/02/15 01:47:11;;;;;;;2.43;1.27;;;14.50;99.90;;;;;;5075086;28;20187;-75
2024/02/15 01:49:37;;;;;;;3.07;1.10;;;14.50;99.90;;;;;;5077842;28;20667;-75
2024/02/15 01:52:05;;;;;;;2.60;1.30;;;14.50;99.90;;;;;;5077008;28;20701;-75
2024/02/15 01:54:32;;;;;;;2.57;1.10;;;14.50;99.90;;;;;;5087882;28;20191;-76
2024/02/15 01:56:58;;;;;;;2.20;1.20;;;14.50;99.90;;;;;;5071835;28;20669;-76
2024/02/15 01:59:25;;;;;;;1.93;1.13;;;14.50;99.90;;;;;;5099340;28;20632;-77
2024/02/15 02:01:51;;;;;;;3.30;1.10;;;14.50;99.90;;;;;;5095169;28;20586;-76
2024/02/15 02:04:17;;;;;;;3.10;1.20;;;14.50;99.90;;;;;;5076071;28;20923;-76
2024/02/15 02:06:43;;;;;;;3.43;1.10;;;14.50;99.90;;;;;;5085622;28;21150;-76
2024/02/15 02:09:15;;;;;;;3.30;1.00;;;14.50;99.90;;;;;;5094042;28;20200;-76
2024/02/15 02:11:44;;;;;;;1.90;1.13;;;14.50;99.90;;;;;;5099516;28;20175;-76
2024/02/15 02:14:11;;;;;;;1.93;1.10;;;14.50;99.90;;;;;;5057465;28;20624;-76
2024/02/15 02:16:39;;;;;;;2.03;1.00;;;14.50;99.90;;;;;;5055974;28;20570;-76
2024/02/15 02:19:08;;;;;;;3.90;1.50;;;14.50;99.90;;;;;;5064829;28;20598;-76
2024/02/15 02:21:36;;;;;;;3.53;1.50;;;14.50;99.90;;;;;;5062797;28;20586;-76
2024/02/15 02:24:21;;;;;;;2.20;1.20;;;14.50;99.90;;;;;;5077238;28;20655;-76
2024/02/15 02:26:47;;;;;;;2.03;1.00;;;14.60;99.90;;;;;;5076415;28;20586;-76
2024/02/15 02:29:15;;;;;;;2.40;1.00;;;14.60;99.90;;;;;;5060128;28;20624;-77
2024/02/15 02:31:42;;;;;;;2.57;1.43;;;14.60;99.90;;;;;;5059457;28;20696;-74
2024/02/15 02:34:08;;;;;;;2.13;1.40;;;14.60;99.90;;;;;;5092230;28;20605;-75
2024/02/15 02:36:34;;;;;;;2.63;1.10;;;14.60;99.90;;;;;;5073898;28;20647;-75
2024/02/15 02:39:00;;;;;;;3.23;1.17;;;14.60;99.90;;;;;;5092448;28;20613;-75
2024/02/15 02:41:29;;;;;;;1.73;1.20;;;14.60;99.90;;;;;;5074528;28;20179;-75
2024/02/15 02:43:56;;;;;;;2.10;0.97;;;14.60;99.90;;;;;;5084310;28;20577;-75
2024/02/15 02:46:22;;;;;;;1.50;1.00;;;14.60;99.90;;;;;;5074074;28;20932;-75
2024/02/15 02:48:48;;;;;;;1.87;1.00;;;14.60;99.90;;;;;;5092052;28;20692;-75
2024/02/15 02:51:13;;;;;;;2.10;1.10;;;14.60;99.90;;;;;;5065920;28;20634;-75
2024/02/15 02:53:39;;;;;;;2.80;1.00;;;14.60;99.90;;;;;;5073973;28;20533;-75
2024/02/15 02:56:05;;;;;;;2.43;1.17;;;14.60;99.90;;;;;;5091720;28;20613;-75
2024/02/15 02:58:31;;;;;;;3.30;1.17;;;14.60;99.90;;;;;;5073717;28;20257;-75
2024/02/15 03:01:00;;;;;;;2.60;0.97;;;14.60;99.90;;;;;;5074722;28;20573;-75
2024/02/15 03:03:26;;;;;;;1.83;0.90;;;14.60;99.90;;;;;;5093660;28;20168;-75
2024/02/15 03:05:53;;;;;;;2.00;1.20;;;14.60;99.90;;;;;;5076404;28;20588;-75
2024/02/15 03:08:20;;;;;;;3.90;0.90;;;14.60;99.90;;;;;;5074538;28;20290;-75
2024/02/15 03:10:46;;;;;;;2.30;1.00;;;14.60;99.90;;;;;;5092412;28;20589;-75
2024/02/15 03:13:12;;;;;;;2.27;1.30;;;14.60;99.90;;;;;;5091965;28;20581;-75
2024/02/15 03:15:38;;;;;;;2.30;1.00;;;14.60;99.90;;;;;;5091070;28;20604;-75
2024/02/15 03:18:07;;;;;;;2.57;1.10;;;14.60;99.90;;;;;;5072568;28;20684;-75
2024/02/15 03:20:33;;;;;;;3.03;1.50;;;14.60;99.90;;;;;;5091699;28;20176;-75
2024/02/15 03:23:02;;;;;;;1.50;0.90;;;14.60;99.90;;;;;;5091933;28;20578;-74
2024/02/15 03:25:28;;;;;;;2.80;1.10;;;14.60;99.90;;;;;;5073393;28;20597;-75
2024/02/15 03:28:01;;;;;;;1.90;0.80;;;14.60;99.90;;;;;;5073051;28;20617;-75
2024/02/15 03:30:30;;;;;;;3.10;1.30;;;14.50;99.90;;;;;;5053243;28;20586;-75
2024/02/15 03:32:56;;;;;;;4.20;1.37;;;14.50;99.90;;;;;;5087131;28;21046;-75
2024/02/15 03:35:24;;;;;;;2.27;1.20;;;14.50;99.90;;;;;;5073756;28;20685;-75
2024/02/15 03:37:53;;;;;;;3.97;0.87;;;14.40;99.90;;;;;;5090780;28;20644;-75
2024/02/15 03:40:20;;;;;;;3.87;1.20;;;14.40;99.90;;;;;;5073488;28;20589;-74
2024/02/15 03:42:46;;;;;;;3.30;1.23;;;14.40;99.90;;;;;;5072904;28;20608;-74
2024/02/15 03:45:12;;;;;;;1.80;0.87;;;14.40;99.90;;;;;;5090525;28;20628;-74
2024/02/15 03:47:38;;;;;;;3.70;1.20;;;14.40;99.90;;;;;;5071792;28;20607;-74
2024/02/15 03:50:09;;;;;;;2.47;1.10;;;14.40;99.90;;;;;;5072712;28;20624;-74
2024/02/15 03:52:36;;;;;;;2.67;1.03;;;14.40;99.90;;;;;;5073128;28;20179;-75
2024/02/15 03:55:02;;;;;;;2.37;1.13;;;14.40;99.90;;;;;;5073966;28;20577;-75
2024/02/15 03:57:28;;;;;;;3.30;1.27;;;14.40;99.90;;;;;;5072820;28;20683;-75
2024/02/15 03:59:56;;;;;;;2.13;0.90;;;14.40;99.90;;;;;;5088670;28;21032;-75
2024/02/15 04:02:26;;;;;;;2.50;1.33;;;14.40;99.90;;;;;;5061677;28;20571;-75
2024/02/15 04:04:54;;;;;;;3.00;1.30;;;14.40;99.90;;;;;;5072217;28;20609;-75
2024/02/15 04:07:20;;;;;;;2.33;0.87;;;14.40;99.90;;;;;;5091961;28;20585;-75
2024/02/15 04:09:46;;;;;;;2.00;1.00;;;14.40;99.90;;;;;;5058660;28;20625;-75
2024/02/15 04:12:13;;;;;;;1.60;0.80;;;14.40;99.90;;;;;;5093199;28;20589;-75
2024/02/15 04:14:40;;;;;;;2.37;1.03;;;14.40;99.90;;;;;;5068268;28;20615;-75
2024/02/15 04:17:06;;;;;;;3.00;1.00;;;14.40;99.90;;;;;;5074638;28;20641;-75
2024/02/15 04:19:32;;;;;;;5.30;1.00;;;14.40;99.90;;;;;;5074470;28;20684;-75
2024/02/15 04:22:00;;;;;;;1.70;0.73;;;14.40;99.90;;;;;;5049319;28;20594;-75
2024/02/15 04:24:26;;;;;;;2.17;0.97;;;14.40;99.90;;;;;;5074157;28;20958;-75
2024/02/15 04:26:52;;;;;;;2.80;1.00;;;14.50;99.90;;;;;;5091672;28;20684;-75
2024/02/15 04:29:20;;;;;;;2.77;0.97;;;14.50;99.90;;;;;;5038379;28;20717;-75
2024/02/15 04:31:49;;;;;;;1.90;1.00;;;14.50;99.90;;;;;;5077243;28;20848;-76
2024/02/15 04:34:16;;;;;;;2.30;0.90;;;14.50;99.90;;;;;;5091386;28;20901;-75
2024/02/15 04:36:49;;;;;;;1.83;0.90;;;14.50;99.90;;;;;;5075166;28;20621;-76
2024/02/15 04:39:23;;;;;;;1.43;0.80;;;14.50;99.90;;;;;;5086075;28;20618;-75
2024/02/15 04:41:53;;;;;;;3.87;0.90;;;14.60;99.90;;;;;;5056269;28;20590;-75
2024/02/15 04:44:26;;;;;;;3.80;0.97;;;14.60;99.90;;;;;;5090994;28;20606;-75
2024/02/15 04:46:53;;;;;;;4.73;1.10;;;14.60;99.90;;;;;;5072575;28;20662;-75
2024/02/15 04:49:22;;;;;;;2.10;1.00;;;14.70;99.90;;;;;;5050591;28;20622;-75
2024/02/15 04:51:48;;;;;;;2.07;0.90;;;14.70;99.90;;;;;;5072094;28;21027;-75
2024/02/15 04:54:14;;;;;;;3.07;0.73;;;14.70;99.90;;;;;;5092328;28;20656;-75
2024/02/15 04:56:40;;;;;;;2.37;0.90;;;14.70;99.90;;;;;;5076151;28;20179;-75
2024/02/15 04:59:15;;;;;;;3.30;0.97;;;14.80;99.90;;;;;;5092589;28;20621;-76
2024/02/15 05:01:43;;;;;;;4.00;1.37;;;14.80;99.90;;;;;;5054708;28;20581;-75
2024/02/15 05:04:13;;;;;;;2.23;1.00;;;14.70;99.90;;;;;;5045366;28;20602;-75
2024/02/15 05:06:39;;;;;;;2.63;0.97;;;14.70;99.90;;;;;;5042442;28;20648;-75
2024/02/15 05:09:10;;;;;;;1.93;1.03;;;14.80;99.90;;;;;;5066763;28;20882;-74
2024/02/15 05:11:41;;;;;;;4.27;0.90;;;14.80;99.90;;;;;;5089802;28;20658;-75
2024/02/15 05:14:07;;;;;;;2.00;1.10;;;14.80;99.90;;;;;;5070775;28;20589;-75
2024/02/15 05:16:41;;;;;;;3.37;1.07;;;14.80;99.90;;;;;;5080742;28;20720;-75
2024/02/15 05:19:10;;;;;;;3.40;1.20;;;14.80;99.90;;;;;;5055479;28;20614;-75
2024/02/15 05:21:35;;;;;;;3.07;1.10;;;14.80;99.90;;;;;;5067499;28;20612;-75
2024/02/15 05:24:02;;;;;;;3.57;1.00;;;14.80;99.90;;;;;;5076744;28;20578;-74
2024/02/15 05:26:28;;;;;;;2.33;0.90;;;14.80;99.90;;;;;;5066872;28;20176;-75
2024/02/15 05:28:54;;;;;;;3.20;1.13;;;14.80;99.90;;;;;;5075030;28;20688;-75
2024/02/15 05:31:21;;;;;;;6.00;1.37;;;14.80;99.90;;;;;;5077743;28;20180;-74
2024/02/15 05:33:47;;;;;;;3.13;1.03;;;14.80;99.90;;;;;;5075569;28;20167;-74
2024/02/15 05:36:14;;;;;;;2.63;0.90;;;14.80;99.90;;;;;;5093091;28;20681;-74
2024/02/15 05:38:40;;;;;;;3.73;1.00;;;14.80;99.90;;;;;;5075139;28;20676;-75
2024/02/15 05:41:09;;;;;;;4.40;0.90;;;14.80;99.90;;;;;;5060249;28;20600;-75
2024/02/15 05:43:38;;;;;;;4.43;1.20;;;14.80;99.90;;;;;;5051993;28;20589;-75
2024/02/15 05:46:04;;;;;;;2.80;1.27;;;14.80;99.90;;;;;;5076547;28;20593;-75
2024/02/15 05:48:30;;;;;;;3.73;1.00;;;14.70;99.90;;;;;;5092938;28;20712;-74
2024/02/15 05:50:57;;;;;;;5.67;1.10;;;14.70;99.90;;;;;;5074979;28;20577;-74
2024/02/15 05:53:24;;;;;;;2.57;1.20;;;14.70;99.90;;;;;;5093045;28;20605;-74
2024/02/15 05:55:50;;;;;;;2.73;1.30;;;14.70;99.90;;;;;;5074253;28;20951;-75
2024/02/15 05:58:16;;;;;;;2.40;0.97;;;14.70;99.90;;;;;;5074408;28;21264;-75
2024/02/15 06:00:49;;;;;;;5.03;1.30;;;14.60;99.90;;;;;;5087738;28;20570;-75
2024/02/15 06:03:16;;;;;;;5.20;1.20;;;14.60;99.90;;;;;;5053615;28;21162;-77
2024/02/15 06:05:43;;;;;;;5.30;1.70;;;14.50;99.90;;;;;;5074708;28;20586;-75
2024/02/15 06:08:12;;;;;;;3.77;1.60;;;14.50;99.90;;;;;;5072629;28;20646;-75
2024/02/15 06:10:38;;;;;;;2.97;1.10;;;14.50;99.90;;;;;;5057181;28;21135;-75
2024/02/15 06:13:04;;;;;;;6.67;1.57;;;14.50;99.90;;;;;;5066600;28;20581;-76
2024/02/15 06:15:30;;;;;;;2.43;1.00;;;14.50;99.90;;;;;;5073894;28;20578;-76
2024/02/15 06:17:57;;;;;;;4.03;1.13;;;14.40;99.90;;;;;;5098771;28;20820;-76
2024/02/15 06:20:23;;;;;;;3.37;1.43;;;14.40;99.90;;;;;;5086769;28;20990;-76
2024/02/15 06:22:49;;;;;;;3.13;1.57;;;14.40;99.90;;;;;;5061564;28;20955;-76
2024/02/15 06:25:20;;;;;;;4.33;1.50;;;14.40;99.90;;;;;;5077982;28;21533;-76
2024/02/15 06:27:46;;;;;;;4.80;1.53;;;14.40;99.90;;;;;;5074716;28;20684;-76
2024/02/15 06:41:13;;;;;;;4.50;1.20;;;14.40;99.90;;;;;;5099441;28;21217;-76
2024/02/15 06:43:39;;;;;;;3.00;1.30;;;14.40;99.90;;;;;;5104223;28;20581;-76
2024/02/15 06:46:08;;;;;;;4.40;1.37;;;14.40;99.90;;;;;;5092607;28;20575;-76
2024/02/15 06:48:34;;;;;;;7.63;1.67;;;14.40;99.90;;;;;;5058719;28;20633;-75
2024/02/15 06:51:00;;;;;;;3.43;1.77;;;14.40;99.90;;;;;;5099161;28;20624;-76
2024/02/15 06:53:26;;;;;;;2.93;1.60;;;14.50;99.90;;;;;;5068270;28;20602;-75
2024/02/15 06:55:52;;;;;;;3.63;1.33;;;14.50;99.90;;;;;;5068247;28;20656;-75
2024/02/15 06:58:18;;;;;;;3.10;1.40;;;14.50;99.90;;;;;;5071584;28;20207;-76
2024/02/15 07:00:44;;;;;;;4.27;1.60;;;14.50;99.90;;;;;;5074316;28;20209;-75
2024/02/15 07:03:10;;;;;;;4.00;1.80;;;14.50;99.90;;;;;;5093602;28;20176;-76
2024/02/15 07:05:41;;;;;;;6.23;1.33;;;14.40;99.90;;;;;;5093213;28;20672;-76
2024/02/15 07:08:07;;;;;;;5.10;1.90;;;14.40;99.90;;;;;;5060043;28;20656;-76
2024/02/15 07:10:33;;;;;;;4.40;1.90;;;14.40;99.90;;;;;;5055845;28;20578;-77
2024/02/15 07:13:00;;;;;;;4.43;1.97;;;14.40;99.90;;;;;;5073698;28;20582;-76
2024/02/15 07:15:27;;;;;;;4.80;1.40;;;14.40;99.90;;;;;;5090045;28;20179;-76
2024/02/15 07:17:54;;;;;;;4.17;1.37;;;14.40;99.90;;;;;;5072170;28;20637;-75
2024/02/15 07:20:22;;;;;;;3.83;1.90;;;14.40;99.90;;;;;;5073399;28;20671;-75
2024/02/15 07:22:48;;;;;;;4.50;1.70;;;14.40;99.90;;;;;;5058722;28;20657;-75
2024/02/15 07:25:14;;;;;;;5.50;1.80;;;14.40;99.90;;;;;;5059404;28;20681;-76
2024/02/15 07:27:40;;;;;;;3.10;1.40;;;14.40;99.90;;;;;;5076448;28;20178;-75
2024/02/15 07:30:08;;;;;;;3.67;1.83;;;14.40;99.90;;;;;;5056296;28;20191;-73
2024/02/15 07:32:35;;;;;;;4.67;1.80;;;14.40;99.90;;;;;;5090911;28;20175;-73
2024/02/15 07:35:01;;;;;;;4.33;1.47;;;14.40;99.90;;;;;;5091113;28;20581;-74
2024/02/15 07:37:29;;;;;;;2.63;1.47;;;14.50;99.90;;;;;;5090194;28;20975;-73
2024/02/15 07:39:55;;;;;;;4.23;2.40;;;14.50;99.90;;;;;;5072273;28;20834;-73
2024/02/15 07:42:25;;;;;;;4.50;1.60;;;14.50;99.90;;;;;;5072216;28;20638;-73
2024/02/15 07:44:52;;;;;;;4.27;2.10;;;14.50;99.90;;;;;;5090889;28;20578;-73
2024/02/15 07:47:20;;;;;;;2.90;1.33;;;14.50;99.90;;;;;;5054802;28;20593;-73
2024/02/15 07:49:47;;;;;;;3.53;1.87;;;14.50;99.90;;;;;;5072234;28;20656;-73
2024/02/15 07:52:13;;;;;;;3.50;1.77;;;14.40;99.90;;;;;;5072405;28;20600;-73
2024/02/15 07:54:42;;;;;;;3.70;2.00;;;14.40;99.90;;;;;;5058452;28;20578;-74
2024/02/15 07:57:09;;;;;;;3.17;1.60;;;14.40;99.90;;;;;;5072336;28;20200;-74
2024/02/15 07:59:35;;;;;;;5.90;1.83;;;14.40;99.90;;;;;;5073152;28;20716;-73
2024/02/15 08:02:01;;;;;;;5.90;1.37;;;14.40;99.90;;;;;;5059529;28;20614;-74
2024/02/15 08:04:28;;;;;;;5.10;1.60;;;14.50;99.90;;;;;;5088005;28;20588;-73
2024/02/15 08:06:55;;;;;;;2.63;1.53;;;14.50;99.90;;;;;;5081297;28;20605;-74
2024/02/15 08:09:23;;;;;;;4.27;1.73;;;14.50;99.90;;;;;;5071683;28;20614;-73
2024/02/15 08:11:51;;;;;;;4.33;1.70;;;14.50;99.90;;;;;;5064026;28;20582;-74
2024/02/15 08:14:16;;;;;;;6.30;2.40;;;14.40;99.90;;;;;;5090215;28;20613;-73
2024/02/15 08:16:42;;;;;;;13.43;2.57;;;14.50;99.90;;;;;;5046870;28;20621;-74
2024/02/15 08:19:08;;;;;;;5.63;2.10;;;14.40;99.90;;;;;;5038291;28;20617;-74
2024/02/15 08:21:37;;;;;;;4.20;2.00;;;14.30;99.90;;;;;;5089545;28;20986;-74
2024/02/15 08:24:06;;;;;;;3.73;1.87;;;14.30;99.90;;;;;;5090302;28;20175;-73
2024/02/15 08:26:39;;;;;;;5.10;2.37;;;14.20;99.90;;;;;;5071606;28;20612;-74
2024/02/15 08:29:09;;;;;;;2.73;2.03;;;14.20;99.90;;;;;;5071765;28;20614;-73
2024/02/15 08:31:35;;;;;;;4.70;2.27;;;14.20;99.90;;;;;;5072317;28;20597;-74
2024/02/15 08:34:10;;;;;;;7.73;2.50;;;14.20;99.90;;;;;;5090428;28;20611;-73
2024/02/15 08:36:36;;;;;;;5.70;2.37;;;14.10;99.90;;;;;;5089472;28;20584;-73
2024/02/15 08:39:04;;;;;;;6.63;2.10;;;14.10;99.90;;;;;;5089876;28;20948;-73
2024/02/15 08:41:29;;;;;;;5.17;1.90;;;14.00;99.90;;;;;;5081536;28;20624;-73
2024/02/15 08:43:58;;;;;;;5.40;2.20;;;14.00;99.90;;;;;;5090191;28;20673;-73
2024/02/15 08:46:25;;;;;;;4.33;2.23;;;13.90;99.90;;;;;;5071608;28;20229;-73
2024/02/15 08:48:51;;;;;;;5.10;2.30;;;13.90;99.90;;;;;;5068379;28;20626;-74
2024/02/15 08:51:17;;;;;;;5.77;2.07;;;13.80;99.90;;;;;;5085750;28;20592;-74
2024/02/15 08:53:43;;;;;;;4.50;2.20;;;13.70;99.90;;;;;;5093001;28;20592;-74
2024/02/15 08:56:10;;;;;;;7.97;2.63;;;13.70;99.90;;;;;;5075071;28;21269;-73
2024/02/15 08:58:35;;;;;;;5.10;2.00;;;13.70;99.90;;;;;;5093006;28;20641;-74
2024/02/15 09:01:02;;;;;;;5.30;2.40;;;13.70;99.90;;;;;;5075552;28;21109;-75
2024/02/15 09:03:28;;;;;;;6.73;2.53;;;13.70;99.90;;;;;;5075506;28;20236;-74
2024/02/15 09:05:54;;;;;;;4.60;2.40;;;13.70;99.90;;;;;;5093279;28;20574;-74
2024/02/15 09:08:20;;;;;;;6.93;2.10;;;13.80;99.90;;;;;;5093551;28;20621;-74
2024/02/15 09:10:49;;;;;;;4.67;2.27;;;13.80;99.90;;;;;;5075636;28;20184;-74
2024/02/15 09:13:15;;;;;;;6.17;3.00;;;13.80;99.90;;;;;;5075824;28;20589;-74
2024/02/15 09:15:41;;;;;;;5.70;2.67;;;13.90;99.90;;;;;;5093233;28;20588;-74
2024/02/15 09:18:11;;;;;;;7.87;2.20;;;14.00;99.90;;;;;;5076291;28;20637;-74
2024/02/15 09:20:39;;;;;;;5.67;2.20;;;14.00;99.90;;;;;;5092388;28;20229;-74
2024/02/15 09:23:09;;;;;;;7.40;2.70;;;14.10;99.90;;;;;;5075438;28;20966;-74
2024/02/15 09:25:38;;;;;;;5.83;2.00;;;14.20;99.90;;;;;;5056566;28;20988;-74
2024/02/15 09:28:04;;;;;;;3.03;1.90;;;14.30;99.90;;;;;;5068272;28;20620;-74
2024/02/15 09:30:31;;;;;;;3.97;1.80;;;14.40;99.90;;;;;;5074850;28;20685;-74
2024/02/15 09:32:57;;;;;;;5.37;1.77;;;14.50;99.90;;;;;;5093558;28;20175;-74
2024/02/15 09:35:23;;;;;;;5.93;1.97;;;14.60;99.90;;;;;;5058373;28;20642;-74
2024/02/15 09:37:49;;;;;;;5.60;2.73;;;14.60;99.90;;;;;;5092282;28;21020;-74
2024/02/15 09:40:16;;;;;;;5.87;1.73;;;14.70;99.90;;;;;;5074855;28;20594;-75
2024/02/15 09:42:46;;;;;;;4.07;1.60;;;14.70;99.90;;;;;;5093053;28;20613;-74
2024/02/15 09:45:14;;;;;;;4.07;2.07;;;14.80;99.90;;;;;;5093336;28;20577;-74
2024/02/15 09:47:41;;;;;;;4.83;1.57;;;14.80;99.90;;;;;;5057571;28;20585;-74
2024/02/15 09:50:10;;;;;;;6.43;2.07;;;14.80;99.90;;;;;;5068946;28;20627;-74
2024/02/15 09:52:44;;;;;;;5.17;2.17;;;14.90;99.90;;;;;;5091102;28;20577;-74
2024/02/15 09:55:13;;;;;;;3.33;1.67;;;14.90;99.90;;;;;;5093145;28;20570;-74
2024/02/15 09:57:42;;;;;;;4.23;1.60;;;15.00;99.90;;;;;;5092204;28;20629;-74
2024/02/15 10:00:08;;;;;;;7.43;1.93;;;15.10;99.90;;;;;;5075246;28;20601;-75
2024/02/15 10:02:39;;;;;;;9.97;2.13;;;15.20;99.90;;;;;;5092556;28;20590;-74
2024/02/15 10:05:06;;;;;;;4.80;1.47;;;15.30;99.90;;;;;;5057864;28;20629;-74
2024/02/15 10:07:32;;;;;;;4.80;1.20;;;15.40;99.90;;;;;;5074046;28;20658;-74
2024/02/15 10:10:14;;;;;;;2.67;1.50;;;15.50;99.90;;;;;;5076710;28;20633;-74
2024/02/15 10:12:39;;;;;;;7.37;1.57;;;15.60;99.90;;;;;;5082892;28;20641;-76
2024/02/15 10:15:07;;;;;;;4.83;1.30;;;15.70;99.90;;;;;;5079024;28;20611;-77
2024/02/15 10:17:35;;;;;;;3.03;1.47;;;15.80;99.90;;;;;;5074263;28;20203;-77
2024/02/15 10:20:05;;;;;;;5.23;1.73;;;15.80;99.90;;;;;;5092741;28;21238;-76
2024/02/15 10:22:31;;;;;;;6.17;2.20;;;15.80;99.90;;;;;;5060816;28;20578;-76
2024/02/15 10:25:13;;;;;;;4.30;2.30;;;15.90;99.90;;;;;;5101032;28;20612;-76
2024/02/15 10:27:42;;;;;;;4.17;1.57;;;15.90;99.90;;;;;;5074438;28;20585;-76
2024/02/15 10:30:18;;;;;;;4.80;1.40;;;15.90;99.90;;;;;;5099717;28;20618;-76
2024/02/15 10:32:44;;;;;;;2.90;1.30;;;15.90;99.90;;;;;;5073093;28;20684;-76
2024/02/15 10:35:15;;;;;;;4.80;1.67;;;15.90;99.90;;;;;;5092884;28;20953;-75
2024/02/15 10:37:42;;;;;;;5.33;2.20;;;15.90;99.90;;;;;;5074416;28;20629;-76
2024/02/15 10:40:08;;;;;;;5.03;1.90;;;16.00;99.90;;;;;;5075973;28;20946;-76
2024/02/15 10:42:36;;;;;;;5.33;2.00;;;16.10;99.90;;;;;;5094326;28;20815;-74
2024/02/15 10:45:12;;;;;;;4.10;2.13;;;16.10;99.90;;;;;;5093123;28;20659;-75
2024/02/15 10:47:40;;;;;;;6.80;1.53;;;16.20;99.90;;;;;;5073966;28;20604;-77
2024/02/15 10:50:07;;;;;;;2.83;1.50;;;16.30;99.90;;;;;;5074031;28;20593;-76
2024/02/15 10:52:36;;;;;;;5.60;1.70;;;16.40;99.90;;;;;;5073772;28;21158;-76
2024/02/15 10:55:05;;;;;;;3.50;1.60;;;16.50;99.90;;;;;;5062299;28;20605;-74
2024/02/15 10:57:37;;;;;;;2.33;1.47;;;16.60;99.90;;;;;;5089108;28;20694;-73
2024/02/15 11:00:10;;;;;;;5.57;1.73;;;16.60;99.90;;;;;;5073946;28;20701;-74
2024/02/15 11:02:49;;;;;;;4.50;2.03;;;16.70;99.90;;;;;;5057455;28;20644;-73
2024/02/15 11:05:21;;;;;;;5.77;1.67;;;16.70;99.90;;;;;;5057940;28;20586;-72
2024/02/15 11:07:46;;;;;;;7.33;1.87;;;16.80;99.90;;;;;;5048940;28;20586;-73
2024/02/15 11:10:16;;;;;;;3.97;1.90;;;16.90;99.90;;;;;;5093007;28;20643;-72
2024/02/15 11:12:43;;;;;;;5.27;1.33;;;17.00;99.90;;;;;;5073532;28;20233;-72
2024/02/15 11:15:11;;;;;;;3.93;1.60;;;17.00;99.90;;;;;;5091255;28;20685;-72
2024/02/15 11:17:37;;;;;;;4.50;1.57;;;17.00;99.90;;;;;;5097822;28;20664;-72
2024/02/15 11:20:09;;;;;;;4.10;1.77;;;17.10;99.90;;;;;;5061244;28;20610;-73
2024/02/15 11:22:36;;;;;;;5.20;1.87;;;17.20;99.90;;;;;;5064089;28;20252;-73
2024/02/15 11:25:11;;;;;;;4.20;1.50;;;17.30;99.90;;;;;;5089998;28;20577;-73
2024/02/15 11:27:39;;;;;;;5.30;2.07;;;17.30;99.90;;;;;;5083709;28;20622;-73
2024/02/15 11:30:12;;;;;;;3.87;1.60;;;17.40;99.90;;;;;;5072740;28;20643;-72
2024/02/15 11:32:53;;;;;;;3.40;2.30;;;17.50;99.90;;;;;;5080169;28;20633;-73
2024/02/15 11:35:22;;;;;;;3.60;1.60;;;17.60;99.90;;;;;;5083042;28;20945;-74
2024/02/15 11:38:27;;;;;;;5.13;3.67;;;17.70;99.90;;;;;;5044686;28;20626;-72
2024/02/15 11:40:53;;;;;;;6.20;3.90;;;17.60;99.90;;;;;;5090933;28;20578;-73
2024/02/15 11:44:02;;;;;;;4.90;2.70;;;17.70;99.90;;;;;;5072952;28;20585;-73
2024/02/15 11:46:32;;;;;;;4.80;1.90;;;17.70;99.90;;;;;;5072272;28;20621;-73
2024/02/15 11:48:59;;;;;;;4.97;2.57;;;17.80;99.90;;;;;;5090603;28;21273;-73
2024/02/15 11:51:42;;;;;;;6.70;3.93;;;17.80;99.90;;;;;;5070994;28;20577;-73
2024/02/15 11:54:11;;;;;;;7.30;2.70;;;17.90;99.90;;;;;;5070873;28;20581;-74
2024/02/15 11:56:44;;;;;;;4.23;1.97;;;17.90;99.90;;;;;;5069977;28;20692;-72
2024/02/15 11:59:18;;;;;;;4.20;2.00;;;18.00;99.90;;;;;;5088522;28;20624;-73
2024/02/15 12:18:42;;;;;;;5.30;2.23;;;18.60;99.90;;;;;;5071914;28;21091;-73
2024/02/15 12:21:10;;;;;;;6.70;4.03;;;18.60;99.90;;;;;;5072440;28;20585;-73
2024/02/15 12:23:38;;;;;;;8.03;5.33;;;18.60;99.90;;;;;;5090264;28;20585;-73
2024/02/15 12:26:04;;;;;;;8.50;4.30;;;18.60;99.90;;;;;;5090468;28;20569;-73
2024/02/15 12:28:31;;;;;;;7.30;4.50;;;18.70;99.90;;;;;;5054217;28;20717;-73
2024/02/15 12:30:59;;;;;;;5.67;2.87;;;18.70;99.90;;;;;;5090233;28;20578;-73
2024/02/15 12:33:27;;;;;;;6.10;2.27;;;18.80;99.90;;;;;;5081793;28;20586;-73
2024/02/15 12:36:07;;;;;;;3.70;1.90;;;18.90;99.90;;;;;;5090264;28;20712;-73
2024/02/15 12:38:37;;;;;;;7.10;1.70;;;18.90;99.90;;;;;;5071713;28;20688;-72
2024/02/15 12:41:20;;;;;;;6.17;1.97;;;19.00;99.90;;;;;;5090335;28;20582;-73
2024/02/15 12:43:46;;;;;;;3.50;1.30;;;19.10;99.90;;;;;;5081115;28;20587;-73
2024/02/15 12:46:17;;;;;;;1.90;1.27;;;19.10;99.90;;;;;;5055480;28;20671;-74
2024/02/15 12:48:43;;;;;;;2.67;1.10;;;19.10;99.90;;;;;;5054741;28;20614;-73
2024/02/15 12:51:15;;;;;;;3.13;1.73;;;19.30;99.90;;;;;;5072076;28;20592;-73
2024/02/15 12:53:42;;;;;;;4.43;1.50;;;19.30;99.90;;;;;;5089714;28;20688;-73
2024/02/15 12:56:09;;;;;;;6.33;3.20;;;19.30;99.90;;;;;;5067593;28;20624;-73
2024/02/15 12:58:35;;;;;;;5.23;2.80;;;19.30;99.90;;;;;;5042061;28;20649;-72
2024/02/15 13:01:01;;;;;;;5.90;2.67;;;19.30;99.90;;;;;;5080096;28;21077;-72
2024/02/15 13:03:27;;;;;;;4.63;2.33;;;19.30;99.90;;;;;;5062021;28;20593;-72
2024/02/15 13:05:53;;;;;;;6.93;1.80;;;19.30;99.90;;;;;;5085770;28;20592;-73
2024/02/15 13:08:19;;;;;;;4.60;1.60;;;19.30;99.90;;;;;;5054329;28;20207;-72
2024/02/15 13:10:46;;;;;;;3.50;2.00;;;19.30;99.90;;;;;;5067911;28;20670;-73
2024/02/15 13:13:14;;;;;;;4.13;1.90;;;19.20;99.90;;;;;;5071822;28;20585;-72
2024/02/15 13:15:40;;;;;;;3.40;1.40;;;19.20;99.90;;;;;;5046867;28;20598;-72
2024/02/15 13:18:09;;;;;;;4.47;2.23;;;19.10;99.90;;;;;;5064940;28;21252;-73
2024/02/15 13:20:37;;;;;;;3.80;2.13;;;19.00;99.90;;;;;;5071511;28;20672;-72